createdAt,value
2017-12-11T00:01:41.261Z,0.30
2017-12-11T00:04:12.906Z,0.20
2017-12-11T00:06:44.225Z,0.20
2017-12-11T00:09:16.302Z,0.23
2017-12-11T00:11:47.642Z,0.10
2017-12-11T00:14:19.621Z,0.20
2017-12-11T00:16:51.249Z,0.20
2017-12-11T00:19:23.008Z,0.10
2017-12-11T00:21:54.049Z,0.27
2017-12-11T00:24:25.355Z,0.10
2017-12-11T00:26:56.363Z,0.20
2017-12-11T00:29:27.708Z,0.10
2017-12-11T00:31:58.716Z,0.10
2017-12-11T00:34:30.069Z,0.20
2017-12-11T00:37:01.015Z,0.10
2017-12-11T00:39:33.534Z,0.20
2017-12-11T00:42:04.621Z,0.13
2017-12-11T00:44:35.978Z,0.10
2017-12-11T00:47:07.480Z,0.10
2017-12-11T00:49:38.566Z,0.20
2017-12-11T00:52:09.614Z,0.20
2017-12-11T00:54:40.918Z,0.23
2017-12-11T00:57:11.962Z,0.20
2017-12-11T00:59:43.872Z,0.20
2017-12-11T01:02:16.306Z,0.20
2017-12-11T01:04:47.166Z,0.20
2017-12-11T01:07:18.521Z,0.20
2017-12-11T01:09:50.664Z,0.30
2017-12-11T01:12:22.124Z,0.20
2017-12-11T01:14:53.639Z,0.43
2017-12-11T01:17:25.213Z,0.30
2017-12-11T01:19:56.207Z,0.50
2017-12-11T01:22:27.128Z,0.30
2017-12-11T01:24:58.132Z,0.43
2017-12-11T01:27:30.643Z,0.40
2017-12-11T01:30:01.653Z,0.30
2017-12-11T01:32:32.480Z,0.30
2017-12-11T01:35:04.183Z,0.30
2017-12-11T01:37:35.385Z,0.20
2017-12-11T01:40:07.581Z,0.30
2017-12-11T01:42:38.699Z,0.47
2017-12-11T01:45:10.250Z,0.37
2017-12-11T01:47:41.571Z,0.40
2017-12-11T01:50:12.837Z,0.30
2017-12-11T01:52:43.670Z,0.40
2017-12-11T01:55:14.565Z,0.30
2017-12-11T01:57:45.577Z,0.30
2017-12-11T02:00:17.211Z,0.40
2017-12-11T02:02:48.153Z,0.40
2017-12-11T02:05:19.955Z,0.40
2017-12-11T02:07:51.154Z,0.63
2017-12-11T02:10:23.789Z,0.50
2017-12-11T02:12:56.159Z,0.40
2017-12-11T02:15:27.845Z,0.50
2017-12-11T02:17:59.717Z,0.30
2017-12-11T02:20:31.423Z,0.40
2017-12-11T02:23:03.144Z,0.30
2017-12-11T02:25:36.206Z,0.27
2017-12-11T02:28:07.700Z,0.50
2017-12-11T02:30:40.004Z,0.40
2017-12-11T02:33:11.216Z,0.47
2017-12-11T02:35:42.271Z,0.30
2017-12-11T02:38:14.766Z,0.40
2017-12-11T02:40:45.927Z,0.30
2017-12-11T02:43:17.349Z,0.50
2017-12-11T02:45:48.719Z,0.20
2017-12-11T02:48:19.653Z,0.33
2017-12-11T02:50:50.701Z,0.30
2017-12-11T02:53:23.206Z,0.47
2017-12-11T02:55:56.241Z,0.30
2017-12-11T02:58:29.063Z,0.30
2017-12-11T03:00:59.878Z,0.37
2017-12-11T03:03:30.733Z,0.43
2017-12-11T03:06:01.586Z,0.30
2017-12-11T03:08:32.649Z,0.30
2017-12-11T03:11:18.263Z,0.30
2017-12-11T03:13:49.320Z,0.27
2017-12-11T03:16:20.522Z,0.40
2017-12-11T03:18:51.905Z,0.30
2017-12-11T03:21:22.796Z,0.30
2017-12-11T03:23:53.706Z,0.40
2017-12-11T03:26:24.483Z,0.30
2017-12-11T03:28:55.344Z,0.40
2017-12-11T03:31:26.516Z,0.33
2017-12-11T03:33:57.396Z,0.20
2017-12-11T03:36:28.186Z,0.40
2017-12-11T03:38:59.381Z,0.30
2017-12-11T03:41:30.361Z,0.30
2017-12-11T03:44:01.172Z,0.40
2017-12-11T03:46:32.333Z,0.50
2017-12-11T03:49:03.077Z,0.50
2017-12-11T03:51:33.915Z,0.50
2017-12-11T03:54:04.785Z,0.40
2017-12-11T03:56:38.818Z,0.40
2017-12-11T03:59:09.637Z,0.30
2017-12-11T04:01:40.685Z,0.50
2017-12-11T04:04:11.556Z,0.30
2017-12-11T04:06:42.285Z,0.40
2017-12-11T04:09:13.182Z,0.60
2017-12-11T04:11:44.506Z,0.40
2017-12-11T04:14:15.435Z,0.40
2017-12-11T04:16:46.244Z,0.53
2017-12-11T04:19:16.928Z,0.50
2017-12-11T04:21:47.959Z,0.50
2017-12-11T04:24:18.696Z,0.60
2017-12-11T04:26:50.010Z,0.70
2017-12-11T04:29:20.866Z,0.40
2017-12-11T04:31:51.566Z,0.43
2017-12-11T04:34:22.313Z,0.60
2017-12-11T04:36:53.423Z,0.30
2017-12-11T04:39:24.146Z,0.30
2017-12-11T04:41:54.996Z,0.40
2017-12-11T04:44:26.085Z,0.30
2017-12-11T04:46:56.841Z,0.50
2017-12-11T04:49:27.836Z,0.60
2017-12-11T04:51:58.940Z,0.50
2017-12-11T04:54:29.867Z,0.40
2017-12-11T04:57:00.846Z,0.50
2017-12-11T04:59:31.583Z,0.63
2017-12-11T05:02:02.386Z,0.43
2017-12-11T05:04:33.496Z,0.57
2017-12-11T05:07:05.883Z,0.30
2017-12-11T05:09:36.829Z,0.43
2017-12-11T05:12:07.704Z,0.60
2017-12-11T05:14:39.532Z,0.47
2017-12-11T05:17:10.324Z,0.50
2017-12-11T05:19:41.177Z,0.60
2017-12-11T05:22:12.116Z,0.70
2017-12-11T05:24:42.992Z,0.33
2017-12-11T05:27:13.865Z,0.63
2017-12-11T05:29:46.313Z,1.07
2017-12-11T05:32:17.619Z,0.80
2017-12-11T05:34:48.399Z,0.40
2017-12-11T05:37:19.232Z,0.50
2017-12-11T05:39:50.832Z,0.40
2017-12-11T05:42:21.620Z,0.50
2017-12-11T05:44:52.633Z,0.50
2017-12-11T05:47:23.933Z,0.50
2017-12-11T05:49:54.829Z,0.70
2017-12-11T05:52:25.623Z,0.30
2017-12-11T05:54:56.858Z,0.60
2017-12-11T05:57:28.070Z,0.53
2017-12-11T05:59:59.511Z,0.70
2017-12-11T06:02:30.354Z,0.40
2017-12-11T06:05:01.363Z,0.40
2017-12-11T06:07:32.858Z,0.67
2017-12-11T06:10:03.901Z,0.60
2017-12-11T06:12:34.767Z,0.67
2017-12-11T06:15:05.979Z,0.80
2017-12-11T06:17:38.104Z,0.90
2017-12-11T06:20:08.978Z,1.00
2017-12-11T06:22:40.182Z,0.70
2017-12-11T06:25:12.408Z,0.43
2017-12-11T06:27:43.494Z,0.60
2017-12-11T06:30:14.586Z,0.63
2017-12-11T06:32:46.572Z,0.50
2017-12-11T06:35:17.442Z,0.67
2017-12-11T06:37:48.459Z,0.50
2017-12-11T06:40:20.168Z,0.43
2017-12-11T06:42:52.502Z,1.90
2017-12-11T06:45:25.067Z,2.60
2017-12-11T06:47:56.434Z,2.50
2017-12-11T06:50:27.340Z,1.43
2017-12-11T06:52:58.130Z,0.67
2017-12-11T06:55:29.161Z,0.50
2017-12-11T06:58:01.419Z,0.40
2017-12-11T07:00:32.390Z,0.53
2017-12-11T07:03:03.397Z,0.60
2017-12-11T07:05:35.034Z,1.10
2017-12-11T07:08:07.889Z,0.90
2017-12-11T07:10:38.996Z,0.53
2017-12-11T07:13:10.275Z,0.87
2017-12-11T07:15:41.455Z,0.60
2017-12-11T07:18:12.687Z,0.80
2017-12-11T07:20:45.706Z,0.50
2017-12-11T07:23:16.722Z,0.73
2017-12-11T07:25:47.579Z,0.60
2017-12-11T07:28:18.434Z,0.50
2017-12-11T07:30:49.248Z,0.30
2017-12-11T07:33:20.120Z,0.30
2017-12-11T07:35:52.805Z,0.40
2017-12-11T07:38:24.076Z,0.50
2017-12-11T07:40:55.874Z,0.60
2017-12-11T07:43:26.778Z,0.53
2017-12-11T07:45:58.470Z,0.50
2017-12-11T07:48:29.306Z,0.60
2017-12-11T07:51:00.252Z,0.63
2017-12-11T07:53:31.215Z,0.50
2017-12-11T07:56:02.365Z,0.50
2017-12-11T07:58:33.282Z,0.60
2017-12-11T08:01:04.128Z,0.50
2017-12-11T08:03:35.569Z,0.50
2017-12-11T08:06:06.536Z,0.40
2017-12-11T08:08:37.588Z,0.50
2017-12-11T08:11:09.009Z,0.40
2017-12-11T08:13:39.795Z,0.40
2017-12-11T08:16:10.771Z,0.40
2017-12-11T08:18:41.957Z,0.33
2017-12-11T08:21:13.101Z,0.50
2017-12-11T08:23:44.242Z,0.53
2017-12-11T08:26:17.576Z,0.50
2017-12-11T08:28:50.663Z,0.53
2017-12-11T08:31:22.744Z,0.77
2017-12-11T08:33:54.474Z,1.00
2017-12-11T08:36:26.009Z,0.80
2017-12-11T08:38:59.770Z,0.90
2017-12-11T08:41:32.353Z,0.60
2017-12-11T08:44:03.659Z,0.67
2017-12-11T08:46:35.035Z,0.50
2017-12-11T08:49:05.973Z,0.50
2017-12-11T08:51:37.178Z,0.53
2017-12-11T08:54:07.912Z,0.40
2017-12-11T08:56:39.995Z,0.40
2017-12-11T08:59:11.150Z,0.40
2017-12-11T09:01:42.018Z,0.60
2017-12-11T09:04:12.869Z,0.50
2017-12-11T09:06:44.067Z,0.70
2017-12-11T09:09:15.455Z,0.83
2017-12-11T09:11:46.447Z,0.60
2017-12-11T09:14:17.619Z,0.77
2017-12-11T09:16:48.460Z,0.50
2017-12-11T09:19:19.440Z,0.40
2017-12-11T09:21:50.337Z,0.93
2017-12-11T09:24:21.634Z,0.63
2017-12-11T09:26:53.627Z,0.60
2017-12-11T09:29:25.414Z,0.50
2017-12-11T09:31:57.368Z,0.30
2017-12-11T09:34:28.234Z,0.30
2017-12-11T09:37:00.050Z,0.30
2017-12-11T09:39:31.303Z,0.30
2017-12-11T09:42:02.212Z,0.30
2017-12-11T09:44:33.920Z,0.37
2017-12-11T09:47:05.767Z,0.40
2017-12-11T09:49:36.771Z,0.40
2017-12-11T09:52:08.313Z,0.40
2017-12-11T09:54:39.326Z,0.30
2017-12-11T09:57:10.024Z,0.40
2017-12-11T09:59:41.450Z,0.40
2017-12-11T10:02:12.328Z,0.40
2017-12-11T10:04:43.366Z,0.50
2017-12-11T10:07:14.566Z,0.43
2017-12-11T10:09:46.535Z,0.30
2017-12-11T10:12:17.490Z,0.50
2017-12-11T10:14:48.766Z,0.40
2017-12-11T10:17:19.743Z,0.63
2017-12-11T10:19:51.245Z,0.40
2017-12-11T10:22:22.392Z,0.40
2017-12-11T10:24:53.903Z,0.40
2017-12-11T10:27:24.920Z,0.63
2017-12-11T10:29:56.540Z,0.60
2017-12-11T10:32:27.384Z,0.40
2017-12-11T10:34:58.304Z,0.67
2017-12-11T10:37:29.304Z,0.60
2017-12-11T10:40:00.662Z,0.43
2017-12-11T10:42:31.939Z,0.60
2017-12-11T10:45:03.195Z,1.30
2017-12-11T10:47:34.083Z,1.20
2017-12-11T10:50:05.513Z,0.90
2017-12-11T10:52:36.588Z,0.67
2017-12-11T10:55:07.946Z,0.70
2017-12-11T10:57:38.955Z,0.80
2017-12-11T11:00:10.391Z,0.93
2017-12-11T11:02:41.620Z,0.77
2017-12-11T11:05:14.211Z,0.60
2017-12-11T11:07:45.332Z,0.50
2017-12-11T11:10:17.554Z,1.00
2017-12-11T11:12:50.091Z,0.60
2017-12-11T11:15:22.113Z,0.40
2017-12-11T11:17:53.625Z,0.40
2017-12-11T11:20:25.362Z,0.30
2017-12-11T11:22:56.625Z,0.50
2017-12-11T11:25:27.959Z,0.30
2017-12-11T11:27:59.157Z,0.37
2017-12-11T11:30:30.154Z,0.57
2017-12-11T11:33:01.300Z,0.50
2017-12-11T11:35:32.228Z,0.40
2017-12-11T11:38:03.340Z,0.40
2017-12-11T11:40:34.800Z,0.60
2017-12-11T11:43:06.727Z,0.50
2017-12-11T11:45:38.994Z,0.30
2017-12-11T11:48:10.114Z,0.40
2017-12-11T11:50:42.617Z,0.37
2017-12-11T11:53:14.190Z,0.50
2017-12-11T11:55:45.431Z,0.50
2017-12-11T11:58:17.405Z,0.60
2017-12-11T12:00:49.080Z,0.50
2017-12-11T12:03:20.355Z,0.50
2017-12-11T12:05:51.448Z,0.37
2017-12-11T12:08:23.612Z,0.40
2017-12-11T12:10:54.893Z,0.40
2017-12-11T12:13:26.400Z,0.70
2017-12-11T12:15:57.589Z,0.47
2017-12-11T12:18:28.596Z,0.60
2017-12-11T12:21:00.050Z,0.40
2017-12-11T12:23:31.454Z,0.80
2017-12-11T12:26:02.918Z,0.63
2017-12-11T12:28:34.460Z,0.50
2017-12-11T12:31:05.608Z,0.53
2017-12-11T12:33:37.851Z,0.40
2017-12-11T12:36:09.151Z,0.40
2017-12-11T12:38:40.609Z,0.43
2017-12-11T12:41:12.337Z,0.60
2017-12-11T12:43:46.036Z,0.40
2017-12-11T12:46:17.861Z,0.50
2017-12-11T12:48:49.413Z,0.60
2017-12-11T12:51:20.802Z,0.30
2017-12-11T12:53:51.826Z,0.20
2017-12-11T12:56:23.017Z,0.30
2017-12-11T12:58:55.269Z,0.20
2017-12-11T13:01:28.459Z,0.10
2017-12-11T13:03:59.681Z,0.30
2017-12-11T13:06:32.412Z,0.33
2017-12-11T13:09:04.722Z,0.10
2017-12-11T13:11:37.321Z,0.20
2017-12-11T13:14:08.690Z,0.13
2017-12-11T13:16:40.104Z,0.10
2017-12-11T13:19:11.225Z,0.20
2017-12-11T13:21:43.527Z,0.20
2017-12-11T13:24:17.114Z,0.30
2017-12-11T13:26:52.493Z,0.10
2017-12-11T13:29:26.824Z,0.20
2017-12-11T13:31:58.695Z,0.20
2017-12-11T13:34:29.753Z,0.10
2017-12-11T13:37:02.132Z,0.10
2017-12-11T13:39:38.629Z,0.10
2017-12-11T13:42:12.162Z,0.20
2017-12-11T13:44:44.500Z,0.20
2017-12-11T13:47:16.467Z,0.20
2017-12-11T13:49:47.681Z,0.10
2017-12-11T13:52:19.285Z,0.20
2017-12-11T13:54:50.563Z,0.20
2017-12-11T13:57:22.860Z,0.27
2017-12-11T13:59:54.637Z,0.30
2017-12-11T14:02:26.958Z,0.27
2017-12-11T14:04:58.961Z,0.70
2017-12-11T14:07:31.029Z,0.67
2017-12-11T14:10:05.105Z,0.80
2017-12-11T14:12:41.476Z,0.53
2017-12-11T14:15:16.444Z,0.40
2017-12-11T14:17:48.285Z,0.30
2017-12-11T14:20:20.812Z,0.43
2017-12-11T14:22:52.358Z,0.40
2017-12-11T14:25:23.892Z,0.27
2017-12-11T14:27:55.655Z,0.30
2017-12-11T14:30:28.376Z,0.20
2017-12-11T14:32:59.226Z,0.30
2017-12-11T14:35:32.062Z,0.30
2017-12-11T14:38:03.662Z,0.10
2017-12-11T14:40:36.794Z,0.10
2017-12-11T14:43:09.227Z,0.10
2017-12-11T14:45:48.198Z,0.10
2017-12-11T14:48:34.139Z,0.10
2017-12-11T14:51:09.089Z,0.20
2017-12-11T14:53:40.475Z,0.20
2017-12-11T14:56:15.334Z,0.30
2017-12-11T14:58:47.063Z,0.30
2017-12-11T15:01:18.617Z,0.30
2017-12-11T15:03:49.925Z,0.50
2017-12-11T15:06:22.371Z,0.50
2017-12-11T15:08:56.774Z,0.50
2017-12-11T15:11:30.624Z,0.50
2017-12-11T15:14:04.119Z,0.40
2017-12-11T15:16:35.540Z,0.30
2017-12-11T15:19:06.990Z,0.20
2017-12-11T15:21:39.835Z,0.10
2017-12-11T15:24:12.723Z,0.10
2017-12-11T15:26:48.792Z,0.10
2017-12-11T15:29:22.509Z,0.23
2017-12-11T15:31:55.212Z,0.20
2017-12-11T15:34:27.958Z,0.20
2017-12-11T15:37:00.122Z,0.20
2017-12-11T15:39:32.528Z,0.20
2017-12-11T15:42:04.340Z,0.20
2017-12-11T15:44:37.205Z,0.30
2017-12-11T15:47:10.247Z,0.30
2017-12-11T15:49:43.148Z,0.20
2017-12-11T15:52:16.016Z,0.37
2017-12-11T15:54:48.306Z,0.30
2017-12-11T15:57:19.655Z,0.33
2017-12-11T15:59:51.112Z,0.40
2017-12-11T16:02:22.266Z,0.20
2017-12-11T16:04:54.576Z,0.30
2017-12-11T16:07:26.659Z,0.43
2017-12-11T16:09:59.561Z,0.30
2017-12-11T16:12:31.320Z,0.37
2017-12-11T16:15:03.176Z,0.30
2017-12-11T16:17:34.675Z,0.20
2017-12-11T16:20:07.766Z,0.30
2017-12-11T16:22:40.112Z,0.20
2017-12-11T16:25:13.488Z,0.30
2017-12-11T16:27:46.669Z,0.20
2017-12-11T16:30:20.519Z,0.20
2017-12-11T16:32:52.098Z,0.20
2017-12-11T16:35:25.721Z,0.23
2017-12-11T16:38:03.522Z,0.20
2017-12-11T16:40:35.614Z,0.10
2017-12-11T16:43:08.867Z,0.20
2017-12-11T16:45:43.493Z,0.17
2017-12-11T16:48:16.192Z,0.20
2017-12-11T16:50:51.143Z,0.23
2017-12-11T16:53:23.581Z,0.30
2017-12-11T16:55:59.787Z,0.20
2017-12-11T16:58:37.579Z,0.30
2017-12-11T17:01:13.581Z,0.20
2017-12-11T17:03:51.818Z,0.30
2017-12-11T17:06:31.104Z,0.30
2017-12-11T17:09:14.571Z,0.20
2017-12-11T17:14:45.863Z,0.20
2017-12-11T17:17:22.963Z,0.20
2017-12-11T17:20:05.441Z,0.20
2017-12-11T17:22:43.658Z,0.20
2017-12-11T17:25:28.504Z,0.10
2017-12-11T17:28:03.468Z,0.20
2017-12-11T17:30:39.468Z,0.20
2017-12-11T17:33:12.679Z,0.20
2017-12-11T17:35:47.597Z,0.10
2017-12-11T17:38:20.419Z,0.10
2017-12-11T17:40:53.410Z,0.17
2017-12-11T17:43:28.785Z,0.10
2017-12-11T17:46:05.303Z,0.20
2017-12-11T17:48:48.510Z,0.10
2017-12-11T17:51:24.081Z,0.20
2017-12-11T17:53:58.687Z,0.20
2017-12-11T17:56:39.878Z,0.20
2017-12-11T17:59:15.501Z,0.13
2017-12-11T18:01:49.234Z,0.17
2017-12-11T18:04:24.148Z,0.30
2017-12-11T18:07:00.214Z,0.30
2017-12-11T18:09:33.041Z,0.20
2017-12-11T18:12:10.685Z,0.20
2017-12-11T18:14:46.182Z,0.10
2017-12-11T18:17:18.925Z,0.27
2017-12-11T18:19:51.165Z,0.20
2017-12-11T18:22:24.601Z,0.20
2017-12-11T18:24:56.922Z,0.20
2017-12-11T18:27:29.611Z,0.20
2017-12-11T18:30:04.726Z,0.20
2017-12-11T18:32:37.799Z,0.20
2017-12-11T18:35:14.585Z,0.20
2017-12-11T18:37:49.407Z,0.20
2017-12-11T18:40:26.561Z,0.30
2017-12-11T18:43:00.590Z,0.20
2017-12-11T18:45:35.411Z,0.20
2017-12-11T18:48:10.599Z,0.20
2017-12-11T18:51:20.940Z,0.40
2017-12-11T18:53:53.019Z,0.30
2017-12-11T18:56:27.364Z,0.20
2017-12-11T18:59:02.807Z,0.20
2017-12-11T19:01:38.253Z,0.20
2017-12-11T19:04:12.323Z,0.20
2017-12-11T19:06:44.642Z,0.30
2017-12-11T19:09:18.855Z,0.20
2017-12-11T19:11:56.594Z,0.20
2017-12-11T19:14:32.907Z,0.20
2017-12-11T19:17:11.501Z,0.20
2017-12-11T19:19:46.587Z,0.20
2017-12-11T19:22:20.069Z,0.27
2017-12-11T19:24:56.786Z,0.20
2017-12-11T19:27:30.235Z,0.20
2017-12-11T19:30:11.838Z,0.23
2017-12-11T19:32:43.454Z,0.20
2017-12-11T19:35:15.033Z,0.20
2017-12-11T19:37:46.721Z,0.20
2017-12-11T19:40:21.158Z,0.20
2017-12-11T19:42:52.871Z,0.20
2017-12-11T19:45:25.734Z,0.20
2017-12-11T19:47:57.858Z,0.20
2017-12-11T19:50:31.161Z,0.20
2017-12-11T19:53:14.240Z,0.20
2017-12-11T19:55:47.657Z,0.20
2017-12-11T19:58:24.638Z,0.37
2017-12-11T20:00:58.193Z,0.30
2017-12-11T20:03:34.536Z,0.20
2017-12-11T20:06:07.012Z,0.50
2017-12-11T20:08:41.986Z,0.30
2017-12-11T20:11:18.352Z,0.30
2017-12-11T20:13:56.273Z,0.30
2017-12-11T20:16:34.180Z,0.20
2017-12-11T20:19:08.532Z,0.20
2017-12-11T20:21:42.758Z,0.30
2017-12-11T20:24:21.904Z,0.30
2017-12-11T20:27:01.498Z,0.30
2017-12-11T20:29:46.693Z,0.20
2017-12-11T20:32:23.011Z,0.27
2017-12-11T20:35:04.659Z,0.20
2017-12-11T20:37:55.286Z,0.20
2017-12-11T20:40:45.610Z,0.20
2017-12-11T20:43:26.115Z,0.20
2017-12-11T20:46:14.661Z,0.20
2017-12-11T20:48:51.571Z,0.20
2017-12-11T20:54:20.662Z,0.20
2017-12-11T20:57:00.048Z,0.30
2017-12-11T20:59:55.072Z,0.20
2017-12-11T21:02:29.958Z,0.20
2017-12-11T21:05:09.880Z,0.30
2017-12-11T21:07:49.472Z,0.30
2017-12-11T21:10:33.857Z,0.30
2017-12-11T21:13:10.971Z,0.20
2017-12-11T21:15:49.442Z,0.20
2017-12-11T21:18:25.188Z,0.40
2017-12-11T21:21:00.232Z,0.20
2017-12-11T21:23:35.281Z,0.30
2017-12-11T21:26:10.176Z,0.20
2017-12-11T21:28:45.932Z,0.20
2017-12-11T21:31:19.217Z,0.23
2017-12-11T21:33:51.738Z,0.20
2017-12-11T21:36:28.553Z,0.30
2017-12-11T21:39:03.089Z,0.20
2017-12-11T21:41:40.126Z,0.20
2017-12-11T21:44:18.617Z,0.20
2017-12-11T21:46:57.765Z,0.30
2017-12-11T21:49:37.372Z,0.23
2017-12-11T21:52:16.117Z,0.20
2017-12-11T21:54:54.175Z,0.20
2017-12-11T21:57:27.994Z,0.30
2017-12-11T22:00:02.078Z,0.20
2017-12-11T22:02:38.885Z,0.20
2017-12-11T22:05:18.105Z,0.30
2017-12-11T22:07:58.165Z,0.30
2017-12-11T22:10:33.419Z,0.30
2017-12-11T22:13:07.282Z,0.20
2017-12-11T22:15:42.482Z,0.30
2017-12-11T22:18:14.705Z,0.40
2017-12-11T22:20:49.907Z,0.40
2017-12-11T22:23:24.867Z,0.20
2017-12-11T22:25:57.241Z,0.30
2017-12-11T22:28:29.832Z,0.30
2017-12-11T22:31:05.880Z,0.40
2017-12-11T22:33:40.109Z,0.30
2017-12-11T22:36:12.220Z,0.27
2017-12-11T22:38:45.162Z,0.20
2017-12-11T22:41:17.374Z,0.40
2017-12-11T22:43:48.784Z,0.20
2017-12-11T22:46:21.761Z,0.30
2017-12-11T22:48:54.543Z,0.30
2017-12-11T22:51:26.897Z,0.40
2017-12-11T22:53:58.944Z,0.20
2017-12-11T22:56:30.587Z,0.30
2017-12-11T22:59:01.452Z,0.30
2017-12-11T23:01:34.281Z,0.30
2017-12-11T23:04:05.803Z,0.30
2017-12-11T23:06:37.722Z,0.30
2017-12-11T23:09:10.707Z,0.30
2017-12-11T23:11:43.137Z,0.30
2017-12-11T23:14:16.109Z,0.30
2017-12-11T23:16:48.106Z,0.40
2017-12-11T23:19:21.467Z,0.30
2017-12-11T23:21:56.113Z,0.23
2017-12-11T23:24:27.981Z,0.30
2017-12-11T23:26:59.682Z,0.30
2017-12-11T23:29:32.748Z,0.30
2017-12-11T23:32:05.952Z,0.40
2017-12-11T23:34:37.426Z,0.57
2017-12-11T23:37:08.537Z,0.30
2017-12-11T23:39:40.232Z,0.30
2017-12-11T23:42:12.049Z,0.40
2017-12-11T23:44:44.169Z,0.40
2017-12-11T23:47:15.809Z,0.40
2017-12-11T23:49:47.574Z,0.40
2017-12-11T23:52:19.283Z,0.30
2017-12-11T23:54:53.841Z,0.27
2017-12-11T23:57:29.509Z,0.43
